createdAt,value
2017-07-21T00:00:27.429Z,97.61
2017-07-21T00:01:28.004Z,96.66
2017-07-21T00:02:28.579Z,97.28
2017-07-21T00:03:29.155Z,98.91
2017-07-21T00:04:29.730Z,99.68
2017-07-21T00:05:30.306Z,98.91
2017-07-21T00:06:30.882Z,99.77
2017-07-21T00:07:31.456Z,99.87
2017-07-21T00:08:32.031Z,99.99
2017-07-21T00:09:32.605Z,99.99
2017-07-21T00:10:33.180Z,99.87
2017-07-21T00:11:33.767Z,99.99
2017-07-21T00:12:34.344Z,99.87
2017-07-21T00:13:34.922Z,99.99
2017-07-21T00:14:35.497Z,98.72
2017-07-21T00:15:36.073Z,97.28
2017-07-21T00:16:36.650Z,97.76
2017-07-21T00:17:37.226Z,98.38
2017-07-21T00:18:37.801Z,97.38
2017-07-21T00:19:38.389Z,98.53
2017-07-21T00:20:38.964Z,97.95
2017-07-21T00:21:39.541Z,98.14
2017-07-21T00:22:40.118Z,98.19
2017-07-21T00:23:40.696Z,98.05
2017-07-21T00:24:41.283Z,98.19
2017-07-21T00:25:41.857Z,98.48
2017-07-21T00:26:42.433Z,98.38
2017-07-21T00:27:43.009Z,99.99
2017-07-21T00:28:43.584Z,98.14
2017-07-21T00:29:44.160Z,98.82
2017-07-21T00:30:44.735Z,98.91
2017-07-21T00:31:45.310Z,99.99
2017-07-21T00:32:45.888Z,99.99
2017-07-21T00:33:46.462Z,97.04
2017-07-21T00:34:47.039Z,98.33
2017-07-21T00:35:47.615Z,98.82
2017-07-21T00:36:48.192Z,99.24
2017-07-21T00:37:48.771Z,98.77
2017-07-21T00:38:49.348Z,99.99
2017-07-21T00:39:49.923Z,98.86
2017-07-21T00:40:50.499Z,97.90
2017-07-21T00:41:51.073Z,99.15
2017-07-21T00:42:51.651Z,99.05
2017-07-21T00:43:52.226Z,99.99
2017-07-21T00:44:52.803Z,99.73
2017-07-21T00:45:53.377Z,99.99
2017-07-21T00:46:53.953Z,99.99
2017-07-21T00:47:54.529Z,99.99
2017-07-21T00:48:55.105Z,99.99
2017-07-21T00:49:55.679Z,99.99
2017-07-21T00:50:56.256Z,99.99
2017-07-21T00:51:56.831Z,99.99
2017-07-21T00:52:57.407Z,99.99
2017-07-21T00:53:57.984Z,99.99
2017-07-21T00:54:58.556Z,99.99
2017-07-21T00:55:59.131Z,99.99
2017-07-21T00:56:59.707Z,99.99
2017-07-21T00:58:00.282Z,99.99
2017-07-21T00:59:00.857Z,99.99
2017-07-21T01:00:01.443Z,99.99
2017-07-21T01:01:02.017Z,99.99
2017-07-21T01:02:02.593Z,99.99
2017-07-21T01:03:03.168Z,99.99
2017-07-21T01:04:03.745Z,99.99
2017-07-21T01:05:04.320Z,99.99
2017-07-21T01:06:04.905Z,99.99
2017-07-21T01:07:05.485Z,99.99
2017-07-21T01:08:06.055Z,99.99
2017-07-21T01:09:06.630Z,99.99
2017-07-21T01:10:07.204Z,99.99
2017-07-21T01:11:07.784Z,99.99
2017-07-21T01:12:08.353Z,99.99
2017-07-21T01:13:08.929Z,99.99
2017-07-21T01:14:09.517Z,99.99
2017-07-21T01:15:10.092Z,99.99
2017-07-21T01:16:10.668Z,99.99
2017-07-21T01:17:11.244Z,99.99
2017-07-21T01:18:11.819Z,99.99
2017-07-21T01:19:12.404Z,99.99
2017-07-21T01:20:12.990Z,99.99
2017-07-21T01:21:13.565Z,99.99
2017-07-21T01:22:14.141Z,99.99
2017-07-21T01:23:14.716Z,99.99
2017-07-21T01:24:15.292Z,99.99
2017-07-21T01:25:15.878Z,99.99
2017-07-21T01:26:16.453Z,99.99
2017-07-21T01:27:17.040Z,99.99
2017-07-21T01:28:17.626Z,99.99
2017-07-21T01:29:18.202Z,99.99
2017-07-21T01:30:18.778Z,99.99
2017-07-21T01:31:19.354Z,99.99
2017-07-21T01:32:19.930Z,99.99
2017-07-21T01:33:20.504Z,99.99
2017-07-21T01:34:21.081Z,99.99
2017-07-21T01:35:21.668Z,99.99
2017-07-21T01:36:22.244Z,99.99
2017-07-21T01:37:22.819Z,99.99
2017-07-21T01:38:23.395Z,99.99
2017-07-21T01:39:23.979Z,99.99
2017-07-21T01:40:24.557Z,99.99
2017-07-21T01:41:25.137Z,99.99
2017-07-21T01:42:25.704Z,99.99
2017-07-21T01:43:26.277Z,99.99
2017-07-21T01:44:26.852Z,99.99
2017-07-21T01:45:27.440Z,99.99
2017-07-21T01:46:28.016Z,99.99
2017-07-21T01:47:28.591Z,99.99
2017-07-21T01:48:29.169Z,99.99
2017-07-21T01:49:29.755Z,99.99
2017-07-21T01:50:30.342Z,99.99
2017-07-21T01:51:30.917Z,99.99
2017-07-21T01:52:31.492Z,99.99
2017-07-21T01:53:32.067Z,99.99
2017-07-21T01:54:32.644Z,99.99
2017-07-21T01:55:33.218Z,99.99
2017-07-21T01:56:33.793Z,99.99
2017-07-21T01:57:34.374Z,99.99
2017-07-21T01:58:34.944Z,99.99
2017-07-21T01:59:35.518Z,99.99
2017-07-21T02:00:36.094Z,99.99
2017-07-21T02:01:36.667Z,99.99
2017-07-21T02:02:37.243Z,99.99
2017-07-21T02:03:37.830Z,99.99
2017-07-21T02:04:38.406Z,99.99
2017-07-21T02:05:38.981Z,99.99
2017-07-21T02:06:39.558Z,99.99
2017-07-21T02:07:40.133Z,99.99
2017-07-21T02:08:40.710Z,99.99
2017-07-21T02:09:41.286Z,99.99
2017-07-21T02:10:41.860Z,99.99
2017-07-21T02:11:42.435Z,99.99
2017-07-21T02:12:43.010Z,99.99
2017-07-21T02:13:43.583Z,99.99
2017-07-21T02:14:44.158Z,99.99
2017-07-21T02:15:44.735Z,99.99
2017-07-21T02:16:45.309Z,99.99
2017-07-21T02:17:45.883Z,99.99
2017-07-21T02:18:46.458Z,99.99
2017-07-21T02:19:47.033Z,99.99
2017-07-21T02:20:47.608Z,99.99
2017-07-21T02:21:48.182Z,99.99
2017-07-21T02:22:48.782Z,99.99
2017-07-21T02:23:49.331Z,99.99
2017-07-21T02:24:49.906Z,99.99
2017-07-21T02:25:50.479Z,99.99
2017-07-21T02:26:51.055Z,99.99
2017-07-21T02:27:51.629Z,99.99
2017-07-21T02:28:52.205Z,99.99
2017-07-21T02:29:52.778Z,99.99
2017-07-21T02:30:53.353Z,99.99
2017-07-21T02:31:53.928Z,99.99
2017-07-21T02:32:54.503Z,99.99
2017-07-21T02:33:55.078Z,99.99
2017-07-21T02:34:55.651Z,99.99
2017-07-21T02:35:56.224Z,99.99
2017-07-21T02:36:56.800Z,99.99
2017-07-21T02:37:57.374Z,99.99
2017-07-21T02:38:57.958Z,99.99
2017-07-21T02:39:58.524Z,99.99
2017-07-21T02:40:59.100Z,99.99
2017-07-21T02:41:59.675Z,99.99
2017-07-21T02:43:00.249Z,99.99
2017-07-21T02:44:00.822Z,99.99
2017-07-21T02:45:01.398Z,99.99
2017-07-21T02:46:01.971Z,99.99
2017-07-21T02:47:02.546Z,99.99
2017-07-21T02:48:03.121Z,99.99
2017-07-21T02:49:03.697Z,99.99
2017-07-21T02:50:04.271Z,99.99
2017-07-21T02:51:04.845Z,99.99
2017-07-21T02:52:05.421Z,99.99
2017-07-21T02:53:05.995Z,99.99
2017-07-21T02:54:06.570Z,99.99
2017-07-21T02:55:07.145Z,99.99
2017-07-21T02:56:07.720Z,99.99
2017-07-21T02:57:08.293Z,99.99
2017-07-21T02:58:08.868Z,99.99
2017-07-21T02:59:09.446Z,99.99
2017-07-21T03:00:10.017Z,99.99
2017-07-21T03:01:10.593Z,99.99
2017-07-21T03:02:11.168Z,99.99
2017-07-21T03:03:11.743Z,99.99
2017-07-21T03:04:12.319Z,99.99
2017-07-21T03:05:12.895Z,99.99
2017-07-21T03:06:13.473Z,99.99
2017-07-21T03:07:14.047Z,99.99
2017-07-21T03:08:14.623Z,99.99
2017-07-21T03:09:15.200Z,99.99
2017-07-21T03:10:15.776Z,99.99
2017-07-21T03:11:16.351Z,99.99
2017-07-21T03:12:16.939Z,99.99
2017-07-21T03:13:17.515Z,99.99
2017-07-21T03:14:18.089Z,99.99
2017-07-21T03:15:18.666Z,99.99
2017-07-21T03:16:19.242Z,99.99
2017-07-21T03:17:19.818Z,99.99
2017-07-21T03:18:20.392Z,99.99
2017-07-21T03:19:20.967Z,99.99
2017-07-21T03:20:21.543Z,99.99
2017-07-21T03:21:22.116Z,99.99
2017-07-21T03:22:22.691Z,99.99
2017-07-21T03:23:23.268Z,99.99
2017-07-21T03:24:23.840Z,99.99
2017-07-21T03:25:24.423Z,99.99
2017-07-21T03:26:24.989Z,99.99
2017-07-21T03:27:25.563Z,99.99
2017-07-21T03:28:26.138Z,99.99
2017-07-21T03:29:26.713Z,99.99
2017-07-21T03:30:27.290Z,99.99
2017-07-21T03:31:27.863Z,99.99
2017-07-21T03:32:28.439Z,99.99
2017-07-21T03:33:29.015Z,99.99
2017-07-21T03:34:29.590Z,99.99
2017-07-21T03:35:30.167Z,99.99
2017-07-21T03:36:30.746Z,99.99
2017-07-21T03:37:31.321Z,99.99
2017-07-21T03:38:31.897Z,99.99
2017-07-21T03:39:32.472Z,99.99
2017-07-21T03:40:33.048Z,99.99
2017-07-21T03:41:33.624Z,99.99
2017-07-21T03:42:34.199Z,99.99
2017-07-21T03:43:34.774Z,99.99
2017-07-21T03:44:35.351Z,99.99
2017-07-21T03:45:35.927Z,99.99
2017-07-21T03:46:36.502Z,99.99
2017-07-21T03:47:37.081Z,99.99
2017-07-21T03:48:37.674Z,99.99
2017-07-21T03:49:38.244Z,99.99
2017-07-21T03:50:38.819Z,99.99
2017-07-21T03:51:39.394Z,99.99
2017-07-21T03:52:39.973Z,99.99
2017-07-21T03:53:40.549Z,99.99
2017-07-21T03:54:41.128Z,99.99
2017-07-21T03:55:41.703Z,99.99
2017-07-21T03:56:42.279Z,99.99
2017-07-21T03:57:42.854Z,99.99
2017-07-21T03:58:43.431Z,99.99
2017-07-21T03:59:44.006Z,99.99
2017-07-21T04:00:44.583Z,99.99
2017-07-21T04:01:45.162Z,99.99
2017-07-21T04:02:45.738Z,99.99
2017-07-21T04:03:46.317Z,99.99
2017-07-21T04:04:46.893Z,99.99
2017-07-21T04:05:47.470Z,99.99
2017-07-21T04:06:48.055Z,99.99
2017-07-21T04:07:48.622Z,99.99
2017-07-21T04:08:49.210Z,99.99
2017-07-21T04:09:49.788Z,99.99
2017-07-21T04:10:50.364Z,99.99
2017-07-21T04:11:50.940Z,99.99
2017-07-21T04:12:51.514Z,99.99
2017-07-21T04:13:52.095Z,99.99
2017-07-21T04:14:52.672Z,99.99
2017-07-21T04:15:53.250Z,99.99
2017-07-21T04:16:53.826Z,99.99
2017-07-21T04:17:54.404Z,99.99
2017-07-21T04:18:54.980Z,99.99
2017-07-21T04:19:55.558Z,99.99
2017-07-21T04:20:56.137Z,99.99
2017-07-21T04:21:56.712Z,99.99
2017-07-21T04:22:57.291Z,99.99
2017-07-21T04:23:57.867Z,99.99
2017-07-21T04:24:58.444Z,99.99
2017-07-21T04:25:59.021Z,99.99
2017-07-21T04:26:59.609Z,99.99
2017-07-21T04:28:00.186Z,99.99
2017-07-21T04:29:00.775Z,99.99
2017-07-21T04:30:01.363Z,99.99
2017-07-21T04:31:01.939Z,99.99
2017-07-21T04:32:02.528Z,99.99
2017-07-21T04:33:03.105Z,99.99
2017-07-21T04:34:03.694Z,99.99
2017-07-21T04:35:04.283Z,99.99
2017-07-21T04:36:04.862Z,99.99
2017-07-21T04:37:05.439Z,99.99
2017-07-21T04:38:06.017Z,99.99
2017-07-21T04:39:06.595Z,99.99
2017-07-21T07:18:21.972Z,76.09
2017-07-21T07:19:22.550Z,75.13
2017-07-21T07:20:23.129Z,75.17
2017-07-21T07:21:23.713Z,74.40
2017-07-21T07:22:24.289Z,73.83
2017-07-21T07:23:24.869Z,74.33
2017-07-21T07:24:25.450Z,75.29
2017-07-21T07:25:26.029Z,74.23
2017-07-21T07:26:26.608Z,73.41
2017-07-21T07:27:27.189Z,73.31
2017-07-21T07:28:27.769Z,72.54
2017-07-21T07:29:28.350Z,72.25
2017-07-21T07:30:28.929Z,71.39
2017-07-21T07:31:29.509Z,71.39
2017-07-21T07:32:30.089Z,71.81
2017-07-21T07:33:30.669Z,71.10
2017-07-21T07:34:31.248Z,71.81
2017-07-21T07:35:31.828Z,71.67
2017-07-21T07:36:32.407Z,72.19
2017-07-21T07:37:32.988Z,72.77
2017-07-21T07:38:33.567Z,70.46
2017-07-21T07:39:34.147Z,70.27
2017-07-21T07:40:34.726Z,70.62
2017-07-21T07:41:35.306Z,71.91
2017-07-21T07:42:35.887Z,71.04
2017-07-21T07:43:36.469Z,71.46
2017-07-21T07:44:37.050Z,68.63
2017-07-21T07:45:37.630Z,69.27
2017-07-21T07:46:38.209Z,71.04
2017-07-21T07:47:38.792Z,69.60
2017-07-21T07:48:39.372Z,68.44
2017-07-21T07:49:39.952Z,68.54
2017-07-21T07:50:40.532Z,69.12
2017-07-21T07:51:41.110Z,69.69
2017-07-21T07:52:41.696Z,69.31
2017-07-21T07:53:42.284Z,69.63
2017-07-21T07:54:42.865Z,68.48
2017-07-21T07:55:43.446Z,68.76
2017-07-21T07:56:44.028Z,68.15
2017-07-21T07:57:44.607Z,68.73
2017-07-21T07:58:45.188Z,68.44
2017-07-21T07:59:45.781Z,69.50
2017-07-21T08:00:46.362Z,69.21
2017-07-21T08:01:46.954Z,68.35
2017-07-21T08:02:47.538Z,66.91
2017-07-21T08:03:48.117Z,67.03
2017-07-21T08:04:48.698Z,67.10
2017-07-21T08:05:49.280Z,66.91
2017-07-21T08:06:49.871Z,66.81
2017-07-21T08:07:50.452Z,67.71
2017-07-21T08:08:51.030Z,66.39
2017-07-21T08:09:51.611Z,65.69
2017-07-21T08:10:52.193Z,65.59
2017-07-21T08:11:52.772Z,66.27
2017-07-21T08:12:53.364Z,66.20
2017-07-21T08:13:53.945Z,65.30
2017-07-21T08:14:54.527Z,65.33
2017-07-21T08:15:55.104Z,64.25
2017-07-21T08:16:55.686Z,64.43
2017-07-21T08:17:56.266Z,65.20
2017-07-21T08:18:56.848Z,64.50
2017-07-21T08:19:57.429Z,64.60
2017-07-21T08:20:58.008Z,65.11
2017-07-21T08:21:58.590Z,64.43
2017-07-21T08:22:59.169Z,65.40
2017-07-21T08:23:59.751Z,64.82
2017-07-21T08:25:00.330Z,65.30
2017-07-21T08:26:00.912Z,66.10
2017-07-21T08:27:01.493Z,66.10
2017-07-21T08:28:02.072Z,67.00
2017-07-21T08:29:02.654Z,64.59
2017-07-21T08:30:03.248Z,64.50
2017-07-21T08:31:03.834Z,63.25
2017-07-21T08:32:04.408Z,62.67
2017-07-21T08:33:04.988Z,63.12
2017-07-21T08:34:05.569Z,64.98
2017-07-21T08:35:06.153Z,64.86
2017-07-21T08:36:06.737Z,66.04
2017-07-21T08:37:07.313Z,63.89
2017-07-21T08:38:07.895Z,64.40
2017-07-21T08:39:08.476Z,61.74
2017-07-21T08:40:09.060Z,62.73
2017-07-21T08:41:09.639Z,62.45
2017-07-21T08:42:10.220Z,62.80
2017-07-21T08:43:10.803Z,60.00
2017-07-21T08:44:11.382Z,60.39
2017-07-21T08:45:11.964Z,59.81
2017-07-21T08:46:12.544Z,59.91
2017-07-21T08:47:13.125Z,59.97
2017-07-21T08:48:13.708Z,60.17
2017-07-21T08:49:14.288Z,61.22
2017-07-21T08:50:14.871Z,61.61
2017-07-21T08:51:15.450Z,61.93
2017-07-21T08:52:16.032Z,60.23
2017-07-21T08:53:16.615Z,56.54
2017-07-21T08:54:17.198Z,56.35
2017-07-21T08:55:17.790Z,57.18
2017-07-21T08:56:18.372Z,58.30
2017-07-21T08:57:18.952Z,59.00
2017-07-21T08:58:19.533Z,57.17
2017-07-21T08:59:20.116Z,56.98
2017-07-21T09:00:20.710Z,56.11
2017-07-21T09:01:21.303Z,56.15
2017-07-21T09:02:21.885Z,57.67
2017-07-21T09:03:22.476Z,57.95
2017-07-21T09:04:23.058Z,58.17
2017-07-21T09:05:23.639Z,59.23
2017-07-21T09:06:24.258Z,56.92
2017-07-21T09:07:24.839Z,56.44
2017-07-21T09:08:25.421Z,55.29
2017-07-21T09:09:26.015Z,56.57
2017-07-21T09:10:26.609Z,56.18
2017-07-21T09:11:27.204Z,55.31
2017-07-21T09:12:27.785Z,56.25
2017-07-21T09:13:28.378Z,56.22
2017-07-21T09:14:28.960Z,57.47
2017-07-21T09:15:29.543Z,58.44
2017-07-21T09:16:30.125Z,58.53
2017-07-21T09:17:30.706Z,58.65
2017-07-21T09:18:31.301Z,57.12
2017-07-21T09:19:31.881Z,57.43
2017-07-21T09:20:32.463Z,57.24
2017-07-21T09:21:33.046Z,58.62
2017-07-21T09:22:33.629Z,56.24
2017-07-21T09:23:34.209Z,55.24
2017-07-21T09:24:34.790Z,55.66
2017-07-21T09:25:35.374Z,54.05
2017-07-21T09:26:35.960Z,53.83
2017-07-21T09:27:36.538Z,54.82
2017-07-21T09:28:37.120Z,54.29
2017-07-21T09:29:37.700Z,53.69
2017-07-21T09:30:38.284Z,52.79
2017-07-21T09:31:38.865Z,53.85
2017-07-21T09:32:39.446Z,53.15
2017-07-21T09:33:40.027Z,53.17
2017-07-21T09:34:40.609Z,52.64
2017-07-21T09:35:41.192Z,54.21
2017-07-21T09:36:41.785Z,53.34
2017-07-21T09:37:42.367Z,53.17
2017-07-21T09:38:42.952Z,52.31
2017-07-21T09:39:43.545Z,53.27
2017-07-21T09:40:44.125Z,52.86
2017-07-21T09:41:44.706Z,53.22
2017-07-21T09:42:45.287Z,53.39
2017-07-21T09:43:45.870Z,54.79
2017-07-21T09:44:46.452Z,52.06
2017-07-21T09:45:47.032Z,53.05
2017-07-21T09:46:47.616Z,52.28
2017-07-21T09:47:48.209Z,52.16
2017-07-21T09:48:48.790Z,53.08
2017-07-21T09:49:49.371Z,52.16
2017-07-21T09:50:49.954Z,51.32
2017-07-21T09:51:50.549Z,50.32
2017-07-21T09:52:51.130Z,51.32
2017-07-21T09:53:51.714Z,51.12
2017-07-21T09:54:52.307Z,50.62
2017-07-21T09:55:52.889Z,51.68
2017-07-21T09:56:53.473Z,51.10
2017-07-21T09:57:54.054Z,51.87
2017-07-21T09:58:54.638Z,53.15
2017-07-21T09:59:55.220Z,52.06
2017-07-21T10:00:55.802Z,52.06
2017-07-21T10:01:56.397Z,51.70
2017-07-21T10:02:56.993Z,53.17
2017-07-21T10:03:57.571Z,52.06
2017-07-21T10:04:58.164Z,53.25
2017-07-21T10:05:58.745Z,54.33
2017-07-21T10:06:59.329Z,52.11
2017-07-21T10:07:59.909Z,53.39
2017-07-21T10:09:00.491Z,52.81
2017-07-21T10:10:01.084Z,52.45
2017-07-21T10:11:01.692Z,51.20
2017-07-21T10:12:02.276Z,50.09
2017-07-21T10:13:02.856Z,50.96
2017-07-21T10:14:03.439Z,52.21
2017-07-21T10:15:04.021Z,52.91
2017-07-21T10:16:04.603Z,51.85
2017-07-21T10:17:05.187Z,51.25
2017-07-21T10:18:05.766Z,51.92
2017-07-21T10:19:06.348Z,52.11
2017-07-21T10:20:06.929Z,51.89
2017-07-21T10:21:07.510Z,52.40
2017-07-21T10:22:08.093Z,52.21
2017-07-21T10:23:08.675Z,52.14
2017-07-21T10:24:09.259Z,50.79
2017-07-21T10:25:09.841Z,51.05
2017-07-21T10:26:10.424Z,52.28
2017-07-21T10:27:11.008Z,52.06
2017-07-21T10:28:11.589Z,52.19
2017-07-21T10:29:12.170Z,49.17
2017-07-21T10:30:12.751Z,49.19
2017-07-21T10:31:13.334Z,47.96
2017-07-21T10:32:13.921Z,48.16
2017-07-21T10:33:14.498Z,49.82
2017-07-21T10:34:15.082Z,48.49
2017-07-21T10:35:15.661Z,49.00
2017-07-21T10:36:16.242Z,49.70
2017-07-21T10:37:16.825Z,48.35
2017-07-21T10:38:17.406Z,48.54
2017-07-21T10:39:17.990Z,48.69
2017-07-21T10:40:18.576Z,49.24
2017-07-21T10:41:19.154Z,50.62
2017-07-21T10:42:19.739Z,50.45
2017-07-21T10:43:20.320Z,48.79
2017-07-21T10:44:20.902Z,48.37
2017-07-21T10:45:21.484Z,49.34
2017-07-21T10:46:22.065Z,48.28
2017-07-21T10:47:22.653Z,50.13
2017-07-21T10:48:23.233Z,49.41
2017-07-21T10:49:23.825Z,48.66
2017-07-21T10:50:24.408Z,47.58
2017-07-21T10:51:24.989Z,47.09
2017-07-21T10:52:25.585Z,48.23
2017-07-21T10:53:26.167Z,48.25
2017-07-21T10:54:26.761Z,49.44
2017-07-21T10:55:27.342Z,46.61
2017-07-21T10:56:27.926Z,47.99
2017-07-21T10:57:28.508Z,46.80
2017-07-21T10:58:29.091Z,47.60
2017-07-21T10:59:29.675Z,47.81
2017-07-21T11:00:30.258Z,46.73
2017-07-21T11:01:30.854Z,47.28
2017-07-21T11:02:31.436Z,47.65
2017-07-21T11:03:32.020Z,49.12
2017-07-21T11:04:32.604Z,47.00
2017-07-21T11:05:33.203Z,45.95
2017-07-21T11:06:33.785Z,46.25
2017-07-21T11:07:34.388Z,46.58
2017-07-21T11:08:34.949Z,48.39
2017-07-21T11:09:35.533Z,47.05
2017-07-21T11:10:36.118Z,48.39
2017-07-21T11:11:36.701Z,46.15
2017-07-21T11:12:37.284Z,46.95
2017-07-21T11:13:37.880Z,47.43
2017-07-21T11:14:38.476Z,48.21
2017-07-21T11:15:39.059Z,49.24
2017-07-21T11:16:39.643Z,46.12
2017-07-21T11:17:40.226Z,46.10
2017-07-21T11:18:40.812Z,47.43
2017-07-21T11:19:41.394Z,48.71
2017-07-21T11:20:42.005Z,47.36
2017-07-21T11:21:42.573Z,47.05
2017-07-21T11:22:43.158Z,46.78
2017-07-21T11:23:43.751Z,46.61
2017-07-21T11:24:44.335Z,46.12
2017-07-21T11:25:44.919Z,45.64
2017-07-21T11:26:45.502Z,46.51
2017-07-21T11:27:46.086Z,45.72
2017-07-21T11:28:46.669Z,48.74
2017-07-21T11:29:47.255Z,45.45
2017-07-21T11:30:47.849Z,45.93
2017-07-21T11:31:48.433Z,46.63
2017-07-21T11:32:49.018Z,48.52
2017-07-21T11:33:49.602Z,45.42
2017-07-21T11:34:50.186Z,45.13
2017-07-21T11:35:50.769Z,44.86
2017-07-21T11:36:51.365Z,45.18
2017-07-21T11:37:51.951Z,44.98
2017-07-21T11:38:52.535Z,45.59
2017-07-21T11:39:53.118Z,44.79
2017-07-21T11:40:53.705Z,44.56
2017-07-21T11:41:54.287Z,46.10
2017-07-21T11:42:54.871Z,46.12
2017-07-21T11:43:55.455Z,45.59
2017-07-21T11:44:56.038Z,47.38
2017-07-21T11:45:56.623Z,45.31
2017-07-21T11:46:57.206Z,47.26
2017-07-21T11:47:57.789Z,47.02
2017-07-21T11:48:58.374Z,46.97
2017-07-21T11:49:58.962Z,43.73
2017-07-21T11:50:59.540Z,45.71
2017-07-21T11:52:00.124Z,46.51
2017-07-21T11:53:00.706Z,43.70
2017-07-21T11:54:01.293Z,44.74
2017-07-21T11:55:01.889Z,44.67
2017-07-21T11:56:02.470Z,44.57
2017-07-21T11:57:03.053Z,45.66
2017-07-21T11:58:03.637Z,45.59
2017-07-21T11:59:04.220Z,43.75
2017-07-21T12:00:04.813Z,44.76
2017-07-21T12:01:05.399Z,43.99
2017-07-21T12:02:05.984Z,43.13
2017-07-21T12:03:06.569Z,42.26
2017-07-21T12:04:07.152Z,41.52
2017-07-21T12:05:07.736Z,43.55
2017-07-21T12:06:08.321Z,44.79
2017-07-21T12:07:08.905Z,44.57
2017-07-21T12:08:09.488Z,43.76
2017-07-21T12:09:10.073Z,44.65
2017-07-21T12:10:10.656Z,45.08
2017-07-21T12:11:11.241Z,44.79
2017-07-21T12:12:11.824Z,45.28
2017-07-21T12:13:12.408Z,45.37
2017-07-21T12:14:12.993Z,44.40
2017-07-21T12:15:13.576Z,44.04
2017-07-21T12:16:14.160Z,43.13
2017-07-21T12:17:14.743Z,43.44
2017-07-21T12:18:15.326Z,44.70
2017-07-21T12:19:15.913Z,44.70
2017-07-21T12:20:16.495Z,44.33
2017-07-21T12:21:17.077Z,43.96
2017-07-21T12:22:17.662Z,43.54
2017-07-21T12:23:18.245Z,43.80
2017-07-21T12:24:18.830Z,44.67
2017-07-21T12:25:19.414Z,43.73
2017-07-21T12:26:19.998Z,43.99
2017-07-21T12:27:20.582Z,43.59
2017-07-21T12:28:21.165Z,43.92
2017-07-21T12:29:21.748Z,43.92
2017-07-21T12:30:22.334Z,43.82
2017-07-21T12:31:22.929Z,43.34
2017-07-21T12:32:23.512Z,43.37
2017-07-21T12:33:24.102Z,44.27
2017-07-21T12:34:24.680Z,41.72
2017-07-21T12:35:25.263Z,41.41
2017-07-21T12:36:25.846Z,42.57
2017-07-21T12:37:26.431Z,43.27
2017-07-21T12:38:27.015Z,43.37
2017-07-21T12:39:27.598Z,43.58
2017-07-21T12:40:28.185Z,43.65
2017-07-21T12:41:28.767Z,44.12
2017-07-21T12:42:29.351Z,44.12
2017-07-21T12:43:29.946Z,43.77
2017-07-21T12:44:30.530Z,43.31
2017-07-21T12:45:31.114Z,42.82
2017-07-21T12:46:31.697Z,43.38
2017-07-21T12:47:32.284Z,41.72
2017-07-21T12:48:32.866Z,42.20
2017-07-21T12:49:33.450Z,43.19
2017-07-21T12:50:34.036Z,43.12
2017-07-21T12:51:34.618Z,42.05
2017-07-21T12:52:35.204Z,42.14
2017-07-21T12:53:35.793Z,41.62
2017-07-21T12:54:36.372Z,41.99
2017-07-21T12:55:36.959Z,41.89
2017-07-21T12:56:37.542Z,42.37
2017-07-21T12:57:38.127Z,41.87
2017-07-21T12:58:38.712Z,42.37
2017-07-21T12:59:39.295Z,42.18
2017-07-21T13:00:39.879Z,44.72
2017-07-21T13:01:40.470Z,42.68
2017-07-21T13:02:41.049Z,43.17
2017-07-21T13:03:41.633Z,42.08
2017-07-21T13:04:42.216Z,42.63
2017-07-21T13:05:42.798Z,41.95
2017-07-21T13:06:43.384Z,42.17
2017-07-21T13:07:43.968Z,41.30
2017-07-21T13:08:44.551Z,41.41
2017-07-21T13:09:45.137Z,40.92
2017-07-21T13:10:45.733Z,41.22
2017-07-21T13:11:46.317Z,42.48
2017-07-21T13:12:46.902Z,41.70
2017-07-21T13:13:47.486Z,41.12
2017-07-21T13:14:48.071Z,41.61
2017-07-21T13:15:48.656Z,40.92
2017-07-21T13:16:49.244Z,41.53
2017-07-21T13:17:49.823Z,40.66
2017-07-21T13:18:50.407Z,39.80
2017-07-21T13:19:50.991Z,41.95
2017-07-21T13:20:51.577Z,41.97
2017-07-21T13:21:52.161Z,41.35
2017-07-21T13:22:52.745Z,41.52
2017-07-21T13:23:53.329Z,42.49
2017-07-21T13:24:53.912Z,42.10
2017-07-21T13:25:54.502Z,41.33
2017-07-21T13:26:55.079Z,42.59
2017-07-21T13:27:55.666Z,42.03
2017-07-21T13:28:56.252Z,41.72
2017-07-21T13:29:56.835Z,43.00
2017-07-21T13:30:57.419Z,42.22
2017-07-21T13:31:58.020Z,42.51
2017-07-21T13:32:58.614Z,42.13
2017-07-21T13:33:59.197Z,42.54
2017-07-21T13:34:59.781Z,42.07
2017-07-21T13:36:00.375Z,41.49
2017-07-21T13:37:00.960Z,40.91
2017-07-21T13:38:01.544Z,40.73
2017-07-21T13:39:02.130Z,41.72
2017-07-21T13:40:02.714Z,40.73
2017-07-21T13:41:03.311Z,40.91
2017-07-21T13:42:03.894Z,42.77
2017-07-21T13:43:04.479Z,42.21
2017-07-21T13:44:05.065Z,40.25
2017-07-21T13:45:05.649Z,40.64
2017-07-21T13:46:06.235Z,40.73
2017-07-21T13:47:06.821Z,41.51
2017-07-21T13:48:07.402Z,41.63
2017-07-21T13:49:07.999Z,41.16
2017-07-21T13:50:08.584Z,40.87
2017-07-21T13:51:09.169Z,40.67
2017-07-21T13:52:09.752Z,40.29
2017-07-21T13:53:10.338Z,40.31
2017-07-21T13:54:10.923Z,40.87
2017-07-21T13:55:11.507Z,39.03
2017-07-21T13:56:12.089Z,40.36
2017-07-21T13:57:12.676Z,40.44
2017-07-21T13:58:13.262Z,41.41
2017-07-21T13:59:13.846Z,41.05
2017-07-21T14:00:14.431Z,40.77
2017-07-21T14:01:15.015Z,40.87
2017-07-21T14:02:15.603Z,40.29
2017-07-21T14:03:16.188Z,40.00
2017-07-21T14:04:16.794Z,40.39
2017-07-21T14:05:17.361Z,40.09
2017-07-21T14:06:17.944Z,39.11
2017-07-21T14:07:18.529Z,40.97
2017-07-21T14:08:19.115Z,40.81
2017-07-21T14:09:19.699Z,40.62
2017-07-21T14:10:20.296Z,40.42
2017-07-21T14:11:20.885Z,38.70
2017-07-21T14:12:21.467Z,40.03
2017-07-21T14:13:22.052Z,40.95
2017-07-21T14:14:22.636Z,40.87
2017-07-21T14:15:23.221Z,39.72
2017-07-21T14:16:23.806Z,39.61
2017-07-21T14:17:24.391Z,39.92
2017-07-21T14:18:24.976Z,39.14
2017-07-21T14:19:25.562Z,38.64
2017-07-21T14:20:26.147Z,39.11
2017-07-21T14:21:26.732Z,40.87
2017-07-21T14:22:27.317Z,40.31
2017-07-21T14:23:27.901Z,40.41
2017-07-21T14:24:28.500Z,39.62
2017-07-21T14:25:29.086Z,39.70
2017-07-21T14:26:29.668Z,40.01
2017-07-21T14:27:30.252Z,40.41
2017-07-21T14:28:30.839Z,41.18
2017-07-21T14:29:31.424Z,39.94
2017-07-21T14:30:32.008Z,40.33
2017-07-21T14:31:32.594Z,40.11
2017-07-21T14:32:33.179Z,39.82
2017-07-21T14:33:33.765Z,39.76
2017-07-21T14:34:34.349Z,40.83
2017-07-21T14:35:34.934Z,41.63
2017-07-21T14:36:35.520Z,40.08
2017-07-21T14:37:36.105Z,41.36
2017-07-21T14:38:36.696Z,39.98
2017-07-21T14:39:37.276Z,41.55
2017-07-21T14:40:37.861Z,39.69
2017-07-21T14:41:38.445Z,40.39
2017-07-21T14:42:39.030Z,39.32
2017-07-21T14:43:39.615Z,39.92
2017-07-21T14:44:40.210Z,39.26
2017-07-21T14:45:40.796Z,39.26
2017-07-21T14:46:41.381Z,38.77
2017-07-21T14:47:41.968Z,38.95
2017-07-21T14:48:42.552Z,40.11
2017-07-21T14:49:43.137Z,40.33
2017-07-21T14:50:43.724Z,38.01
2017-07-21T14:51:44.308Z,37.52
2017-07-21T14:52:44.899Z,38.23
2017-07-21T14:53:45.489Z,36.28
2017-07-21T14:54:46.075Z,35.76
2017-07-21T14:55:46.657Z,38.65
2017-07-21T14:56:47.246Z,38.77
2017-07-21T14:57:47.844Z,38.31
2017-07-21T14:58:48.431Z,38.19
2017-07-21T14:59:49.016Z,38.98
2017-07-21T15:00:49.604Z,38.73
2017-07-21T15:01:50.194Z,39.14
2017-07-21T15:02:50.780Z,38.29
2017-07-21T15:03:51.364Z,38.34
2017-07-21T15:04:51.949Z,39.70
2017-07-21T15:05:52.536Z,40.48
2017-07-21T15:06:53.121Z,40.69
2017-07-21T15:07:53.707Z,39.80
2017-07-21T15:08:54.293Z,39.55
2017-07-21T15:09:54.879Z,38.57
2017-07-21T15:10:55.467Z,38.19
2017-07-21T15:11:56.052Z,39.76
2017-07-21T15:12:56.640Z,39.39
2017-07-21T15:13:57.227Z,37.84
2017-07-21T15:14:57.810Z,37.18
2017-07-21T15:15:58.395Z,37.27
2017-07-21T15:16:58.994Z,37.10
2017-07-21T15:17:59.578Z,37.26
2017-07-21T15:19:00.163Z,37.64
2017-07-21T15:20:00.750Z,37.29
2017-07-21T15:21:01.340Z,36.65
2017-07-21T15:22:01.922Z,39.20
2017-07-21T15:23:02.508Z,38.42
2017-07-21T15:24:03.093Z,37.76
2017-07-21T15:25:03.682Z,37.12
2017-07-21T15:26:04.266Z,36.53
2017-07-21T15:27:04.852Z,36.80
2017-07-21T15:28:05.438Z,35.75
2017-07-21T15:29:06.025Z,35.85
2017-07-21T15:30:06.613Z,36.24
2017-07-21T15:31:07.201Z,36.53
2017-07-21T15:32:07.802Z,35.28
2017-07-21T15:33:08.387Z,36.92
2017-07-21T15:34:08.973Z,36.71
2017-07-21T15:35:09.563Z,36.63
2017-07-21T15:36:10.149Z,36.43
2017-07-21T15:37:10.736Z,36.18
2017-07-21T15:38:11.325Z,37.00